Time;durP1;ratioP1;P1;durP2;ratioP2;P2;SDS_P1;SDS_P2;PMS_P1;PMS_P2;Temp;Humidity;BMP_temperature;BMP_pressure;BME280_temperature;BME280_humidity;BME280_pressure;Samples;Min_cycle;Max_cycle;Signal;HPM_P1;HPM_P2
2022/05/03 00:01:37;;;;;;;27.35;16.90;;;9.90;89.50;;;;;;4977592;28;20045;-78
2022/05/03 00:04:31;;;;;;;15.63;12.98;;;9.90;89.60;;;;;;4977640;28;20035;-77
2022/05/03 00:07:10;;;;;;;17.40;12.95;;;9.90;87.80;;;;;;4974491;28;20035;-77
2022/05/03 00:10:06;;;;;;;14.68;11.77;;;9.90;87.90;;;;;;4976252;28;20377;-76
2022/05/03 00:12:46;;;;;;;18.63;12.85;;;9.90;88.60;;;;;;4956987;29;20039;-77
2022/05/03 00:15:12;;;;;;;21.50;15.93;;;10.00;88.30;;;;;;4956847;29;20032;-77
2022/05/03 00:17:42;;;;;;;14.38;11.75;;;10.00;88.30;;;;;;4958122;28;20035;-78
2022/05/03 00:20:08;;;;;;;16.52;10.15;;;10.00;86.70;;;;;;4957971;28;20031;-75
2022/05/03 00:22:35;;;;;;;14.52;10.23;;;10.00;85.40;;;;;;4957819;28;20028;-77
2022/05/03 00:25:00;;;;;;;24.17;15.65;;;9.90;86.00;;;;;;4957839;28;20019;-75
2022/05/03 00:27:27;;;;;;;28.70;18.42;;;9.90;87.40;;;;;;4956731;29;20131;-78
2022/05/03 00:29:54;;;;;;;21.52;15.60;;;9.80;88.00;;;;;;4956470;29;20032;-75
2022/05/03 00:32:26;;;;;;;18.80;13.48;;;9.80;88.80;;;;;;4956459;29;20460;-78
2022/05/03 00:34:52;;;;;;;32.72;18.70;;;9.70;89.60;;;;;;4956524;29;20023;-75
2022/05/03 00:37:18;;;;;;;32.28;19.88;;;9.70;92.60;;;;;;4957424;28;20024;-78
2022/05/03 00:39:44;;;;;;;29.30;20.52;;;9.60;93.60;;;;;;4957624;28;20503;-76
2022/05/03 00:42:39;;;;;;;26.38;17.02;;;9.60;93.70;;;;;;4957682;28;20031;-75
2022/05/03 00:45:41;;;;;;;34.65;20.02;;;9.70;93.20;;;;;;4956271;29;20023;-75
2022/05/03 00:48:43;;;;;;;40.10;22.90;;;9.60;93.10;;;;;;4956229;29;20031;-76
2022/05/03 00:51:21;;;;;;;31.38;21.23;;;9.50;94.60;;;;;;4956074;29;20600;-75
2022/05/03 00:54:09;;;;;;;31.63;21.60;;;9.50;95.40;;;;;;4956049;29;20499;-75
2022/05/03 00:56:37;;;;;;;26.60;17.17;;;9.50;95.70;;;;;;4955973;29;20110;-75
2022/05/03 00:59:16;;;;;;;23.50;15.73;;;9.50;98.40;;;;;;4955873;28;20031;-78
2022/05/03 01:02:04;;;;;;;29.65;19.90;;;9.40;98.90;;;;;;4956000;29;20536;-78
2022/05/03 01:04:55;;;;;;;29.33;19.90;;;9.40;99.30;;;;;;4957242;28;20027;-78
2022/05/03 01:07:32;;;;;;;31.55;20.00;;;9.40;99.50;;;;;;4951048;29;20521;-75
2022/05/03 01:10:25;;;;;;;27.52;18.17;;;9.40;99.40;;;;;;4959479;28;20034;-78
2022/05/03 01:13:08;;;;;;;16.10;11.43;;;9.30;99.70;;;;;;4995841;28;20037;-77
2022/05/03 01:15:38;;;;;;;15.02;11.25;;;9.30;96.50;;;;;;4978284;28;20031;-77
2022/05/03 01:18:21;;;;;;;17.25;11.35;;;9.30;91.40;;;;;;4978287;28;20036;-76
2022/05/03 01:20:50;;;;;;;;;;;9.10;91.20;;;;;;4978543;28;20033;-76
2022/05/03 01:23:43;;;;;;;17.23;12.52;;;9.10;90.80;;;;;;4977967;28;20331;-76
2022/05/03 01:26:22;;;;;;;18.80;11.98;;;9.10;89.60;;;;;;4978432;28;20033;-77
2022/05/03 01:29:25;;;;;;;16.38;11.73;;;9.00;89.70;;;;;;4977994;28;20483;-76
2022/05/03 01:31:57;;;;;;;19.80;12.68;;;8.90;90.50;;;;;;4994146;28;20072;-77
2022/05/03 01:34:25;;;;;;;19.10;12.77;;;8.80;92.00;;;;;;4995502;28;20029;-76
2022/05/03 01:36:59;;;;;;;16.48;12.80;;;8.80;94.40;;;;;;4977812;28;20026;-76
2022/05/03 01:40:05;;;;;;;15.90;13.32;;;8.70;92.70;;;;;;4994056;28;20030;-77
2022/05/03 01:42:50;;;;;;;21.25;14.07;;;8.60;91.10;;;;;;4994016;28;20117;-77
2022/05/03 01:45:27;;;;;;;18.38;13.73;;;8.60;92.90;;;;;;4993867;28;20073;-77
2022/05/03 01:50:18;;;;;;;28.10;17.85;;;8.50;95.10;;;;;;4977739;28;20035;-77
2022/05/03 01:51:46;;;;;;;28.48;18.13;;;8.40;97.70;;;;;;4994898;28;20038;-76
2022/05/03 01:54:30;;;;;;;27.70;18.38;;;8.30;99.90;;;;;;4968045;28;20034;-76
2022/05/03 01:57:38;;;;;;;23.20;16.10;;;8.20;99.90;;;;;;4994954;28;20023;-77
2022/05/03 02:00:10;;;;;;;32.15;18.83;;;8.00;99.90;;;;;;4977498;28;20053;-77
2022/05/03 02:02:47;;;;;;;29.13;17.10;;;7.90;99.90;;;;;;4977487;28;20101;-76
2022/05/03 02:05:51;;;;;;;31.00;20.92;;;7.60;99.90;;;;;;4977218;28;20030;-76
2022/05/03 02:08:23;;;;;;;33.35;20.08;;;7.60;99.90;;;;;;4994675;28;20494;-76
2022/05/03 02:11:26;;;;;;;30.00;19.05;;;7.50;99.90;;;;;;4973993;28;20132;-76
2022/05/03 02:17:10;;;;;;;23.00;15.50;;;7.30;99.90;;;;;;4975345;28;20057;-77
2022/05/03 02:19:59;;;;;;;21.73;13.98;;;7.30;99.90;;;;;;4973970;28;20640;-76
2022/05/03 02:22:54;;;;;;;21.02;13.23;;;7.20;99.90;;;;;;4973621;28;20030;-77
2022/05/03 02:25:35;;;;;;;19.17;12.88;;;7.20;99.90;;;;;;4973806;28;20097;-75
2022/05/03 02:28:04;;;;;;;20.40;15.50;;;7.10;99.90;;;;;;4975110;28;20089;-76
2022/05/03 02:30:33;;;;;;;24.13;15.50;;;7.10;99.90;;;;;;4973683;28;20114;-78
2022/05/03 02:33:04;;;;;;;22.20;14.27;;;7.10;99.90;;;;;;4974965;28;20056;-80
2022/05/03 02:35:34;;;;;;;21.38;14.02;;;7.10;99.90;;;;;;4974787;28;20106;-79
2022/05/03 02:38:07;;;;;;;22.85;16.05;;;7.10;99.90;;;;;;4973560;28;20030;-79
2022/05/03 02:40:38;;;;;;;21.73;15.00;;;7.10;99.90;;;;;;4973468;28;20019;-76
2022/05/03 02:43:05;;;;;;;22.65;14.45;;;7.10;99.90;;;;;;4974786;28;20042;-77
2022/05/03 02:45:37;;;;;;;20.60;14.05;;;7.10;99.90;;;;;;4973468;28;20026;-76
2022/05/03 02:48:28;;;;;;;21.00;15.57;;;7.10;99.90;;;;;;4974660;28;20035;-76
2022/05/03 02:51:03;;;;;;;20.45;15.23;;;7.10;99.90;;;;;;4973365;28;20023;-78
2022/05/03 02:53:43;;;;;;;25.65;15.75;;;7.10;99.90;;;;;;4973360;28;20019;-79
2022/05/03 02:56:27;;;;;;;27.15;17.08;;;7.10;99.90;;;;;;4973190;28;20429;-76
2022/05/03 02:59:02;;;;;;;24.20;15.55;;;7.00;99.90;;;;;;4989343;28;20027;-77
2022/05/03 03:01:57;;;;;;;21.88;15.13;;;7.00;99.90;;;;;;4974427;28;20065;-76
2022/05/03 03:04:46;;;;;;;19.77;12.20;;;7.10;99.90;;;;;;4973159;28;20117;-76
2022/05/03 03:07:18;;;;;;;20.08;14.05;;;7.00;99.90;;;;;;4974181;28;20022;-77
2022/05/03 03:09:48;;;;;;;20.05;14.00;;;6.90;99.90;;;;;;4974872;28;20033;-77
2022/05/03 03:12:39;;;;;;;21.45;15.20;;;7.00;99.90;;;;;;4976352;28;20024;-77
2022/05/03 03:15:09;;;;;;;19.42;14.25;;;6.90;99.90;;;;;;4976098;28;20034;-75
2022/05/03 03:17:40;;;;;;;17.95;13.23;;;6.80;99.90;;;;;;4993598;28;20019;-75
2022/05/03 03:20:07;;;;;;;20.98;13.50;;;6.70;99.90;;;;;;4993694;28;20034;-75
2022/05/03 03:22:41;;;;;;;20.10;13.60;;;6.70;99.90;;;;;;4993499;28;20356;-76
2022/05/03 03:25:11;;;;;;;21.63;13.32;;;6.70;99.90;;;;;;4993466;28;20030;-77
2022/05/03 03:27:39;;;;;;;19.63;14.05;;;6.50;99.90;;;;;;4976134;28;20038;-77
2022/05/03 03:30:07;;;;;;;19.67;12.70;;;6.50;99.90;;;;;;4993601;28;20495;-77
2022/05/03 03:32:36;;;;;;;18.55;12.32;;;6.40;99.90;;;;;;4992037;28;20023;-75
2022/05/03 03:35:02;;;;;;;21.75;12.07;;;6.40;99.90;;;;;;4975481;28;20022;-77
2022/05/03 03:37:30;;;;;;;17.42;12.10;;;6.50;99.90;;;;;;4975841;28;20023;-76
2022/05/03 03:39:56;;;;;;;19.05;12.80;;;6.60;99.90;;;;;;4993359;28;20369;-78
2022/05/03 03:42:22;;;;;;;18.80;13.25;;;6.60;99.90;;;;;;4975869;28;20085;-77
2022/05/03 03:44:48;;;;;;;24.88;13.90;;;6.60;99.90;;;;;;4975859;28;20033;-77
2022/05/03 03:47:15;;;;;;;20.60;13.70;;;6.70;99.90;;;;;;4975895;28;20018;-78
2022/05/03 03:49:42;;;;;;;20.40;13.35;;;6.70;99.90;;;;;;4975906;28;20018;-79
2022/05/03 03:52:08;;;;;;;17.42;13.02;;;6.70;99.90;;;;;;4975823;28;20064;-78
2022/05/03 03:54:35;;;;;;;22.98;15.88;;;6.70;99.90;;;;;;4993304;28;20034;-80
2022/05/03 03:57:03;;;;;;;18.20;13.88;;;6.80;99.90;;;;;;4975778;28;20026;-78
2022/05/03 03:59:31;;;;;;;19.20;12.77;;;6.80;99.90;;;;;;4993380;28;20078;-75
2022/05/03 04:02:01;;;;;;;16.92;12.68;;;6.90;99.90;;;;;;4992229;28;20054;-75
2022/05/03 04:04:31;;;;;;;16.10;11.50;;;7.00;99.90;;;;;;4975774;28;20109;-77
2022/05/03 04:06:56;;;;;;;19.48;12.95;;;7.10;99.90;;;;;;4975935;28;20019;-76
2022/05/03 04:09:22;;;;;;;17.70;11.65;;;7.20;99.90;;;;;;4993147;28;20503;-76
2022/05/03 04:11:48;;;;;;;13.73;10.60;;;7.40;99.90;;;;;;4993191;28;20115;-77
2022/05/03 04:14:14;;;;;;;15.57;11.35;;;7.40;99.90;;;;;;4975707;28;20023;-77
2022/05/03 04:16:40;;;;;;;14.93;10.27;;;7.60;99.90;;;;;;4993094;28;20364;-76
2022/05/03 04:19:07;;;;;;;16.90;10.70;;;7.80;99.90;;;;;;4975595;28;20034;-77
2022/05/03 04:21:32;;;;;;;13.27;10.63;;;7.90;98.60;;;;;;4975637;28;20027;-75
2022/05/03 04:23:58;;;;;;;16.40;10.82;;;8.10;98.80;;;;;;4992911;28;20030;-77
2022/05/03 04:26:23;;;;;;;15.73;10.80;;;8.20;97.70;;;;;;4975478;28;20026;-75
2022/05/03 04:28:49;;;;;;;13.88;10.45;;;8.40;97.50;;;;;;4992984;28;20479;-75
2022/05/03 04:31:14;;;;;;;13.73;9.95;;;8.50;95.60;;;;;;4992866;28;20039;-75
2022/05/03 04:33:40;;;;;;;15.73;10.75;;;8.70;94.90;;;;;;4975545;28;20490;-75
2022/05/03 04:36:05;;;;;;;14.57;11.05;;;8.90;94.90;;;;;;4975460;28;20026;-75
2022/05/03 04:38:31;;;;;;;14.20;10.05;;;9.00;94.50;;;;;;4975521;28;20018;-77
2022/05/03 04:41:01;;;;;;;12.65;10.52;;;9.00;98.70;;;;;;4975412;28;20026;-77
2022/05/03 04:43:27;;;;;;;11.23;9.95;;;9.00;99.90;;;;;;4975371;28;20029;-75
2022/05/03 04:45:52;;;;;;;14.32;11.35;;;9.00;99.90;;;;;;4992980;28;20045;-76
2022/05/03 04:48:18;;;;;;;16.13;11.05;;;9.10;99.90;;;;;;4978787;28;20031;-78
2022/05/03 04:50:44;;;;;;;12.27;10.38;;;9.20;99.90;;;;;;5002649;28;20129;-76
2022/05/03 04:53:09;;;;;;;12.63;9.77;;;9.20;98.60;;;;;;4997943;28;20544;-76
2022/05/03 04:55:39;;;;;;;11.77;10.43;;;9.30;97.50;;;;;;4997964;28;20105;-76
2022/05/03 04:58:05;;;;;;;12.55;10.27;;;9.40;97.20;;;;;;5015673;28;20168;-76
2022/05/03 05:00:31;;;;;;;12.85;10.82;;;9.40;96.40;;;;;;5006693;28;20066;-76
2022/05/03 05:02:56;;;;;;;14.98;10.20;;;9.50;96.80;;;;;;4986183;28;20369;-77
2022/05/03 05:05:22;;;;;;;14.48;9.95;;;9.50;96.00;;;;;;4978271;28;20099;-75
2022/05/03 05:07:47;;;;;;;13.80;10.52;;;9.60;96.20;;;;;;4995793;28;20041;-76
2022/05/03 05:10:26;;;;;;;14.50;10.52;;;9.70;98.30;;;;;;4978217;28;20050;-78
2022/05/03 05:12:53;;;;;;;14.60;11.15;;;9.70;99.90;;;;;;4978066;28;20092;-78
2022/05/03 05:15:21;;;;;;;12.60;10.93;;;9.70;99.90;;;;;;4984088;28;20038;-78
2022/05/03 05:17:46;;;;;;;16.75;12.02;;;9.80;99.90;;;;;;4999500;28;20098;-77
2022/05/03 05:20:12;;;;;;;22.38;14.88;;;9.80;99.60;;;;;;4994292;28;20172;-76
2022/05/03 05:22:37;;;;;;;20.42;13.48;;;9.80;98.30;;;;;;5000578;28;20026;-77
2022/05/03 05:25:03;;;;;;;18.13;12.43;;;9.90;98.20;;;;;;5005097;28;20034;-78
2022/05/03 05:27:29;;;;;;;16.27;11.70;;;10.10;99.00;;;;;;4985792;28;20034;-75
2022/05/03 05:29:54;;;;;;;16.60;12.35;;;10.10;97.20;;;;;;5008641;28;20018;-76
2022/05/03 05:32:20;;;;;;;18.42;13.73;;;10.20;94.60;;;;;;5013723;28;20480;-76
2022/05/03 05:34:46;;;;;;;20.60;13.27;;;10.30;93.70;;;;;;5015049;28;20061;-77
2022/05/03 05:37:11;;;;;;;19.90;13.13;;;10.40;94.00;;;;;;4997219;28;20494;-76
2022/05/03 05:39:36;;;;;;;16.15;11.55;;;10.50;91.10;;;;;;5014795;28;20113;-76
2022/05/03 05:42:02;;;;;;;22.83;13.90;;;10.60;88.10;;;;;;5014854;28;20097;-75
2022/05/03 05:44:28;;;;;;;16.42;13.48;;;10.80;86.90;;;;;;5013398;28;20025;-77
2022/05/03 05:46:54;;;;;;;35.72;17.70;;;11.10;85.80;;;;;;5013369;28;20049;-77
2022/05/03 05:49:20;;;;;;;33.78;19.27;;;11.20;82.00;;;;;;5014667;28;20121;-75
2022/05/03 05:51:46;;;;;;;27.60;17.05;;;11.40;78.70;;;;;;4989742;28;20114;-75
2022/05/03 05:54:12;;;;;;;28.42;17.63;;;11.40;76.60;;;;;;5001832;28;20050;-76
2022/05/03 05:56:41;;;;;;;28.23;17.25;;;11.50;78.60;;;;;;4995075;28;20034;-78
2022/05/03 05:59:06;;;;;;;29.73;17.98;;;11.70;80.50;;;;;;4977495;28;20026;-75
2022/05/03 06:01:39;;;;;;;23.33;15.30;;;11.80;80.40;;;;;;4993609;28;20368;-77
2022/05/03 06:04:06;;;;;;;27.02;16.63;;;11.90;81.60;;;;;;4977370;28;20057;-75
2022/05/03 06:06:32;;;;;;;33.33;19.60;;;12.00;80.00;;;;;;4994770;28;20026;-76
2022/05/03 06:08:59;;;;;;;32.92;20.08;;;12.10;80.00;;;;;;4984520;28;20038;-76
2022/05/03 06:11:25;;;;;;;44.97;22.58;;;12.30;80.40;;;;;;4992723;28;20062;-76
2022/05/03 06:13:51;;;;;;;41.92;26.70;;;12.30;77.10;;;;;;4992873;28;20045;-76
2022/05/03 06:16:17;;;;;;;41.38;24.50;;;12.50;75.20;;;;;;4993409;28;20038;-76
2022/05/03 06:18:42;;;;;;;44.25;24.75;;;12.60;75.20;;;;;;4975363;28;20049;-76
2022/05/03 06:21:08;;;;;;;41.83;25.15;;;12.70;74.80;;;;;;4987664;28;20018;-76
2022/05/03 06:23:34;;;;;;;41.67;25.83;;;12.80;73.80;;;;;;4991990;28;20085;-75
2022/05/03 06:25:59;;;;;;;41.20;22.48;;;12.80;72.60;;;;;;5011179;28;20475;-83
2022/05/03 06:28:25;;;;;;;42.13;20.00;;;12.90;71.90;;;;;;4996283;28;20117;-76
2022/05/03 06:30:50;;;;;;;33.13;19.83;;;12.90;73.80;;;;;;5013929;28;20400;-78
2022/05/03 06:33:16;;;;;;;35.60;20.08;;;13.00;74.70;;;;;;4996164;28;20033;-77
2022/05/03 06:35:42;;;;;;;39.25;21.00;;;13.00;77.30;;;;;;5012474;28;20018;-76
2022/05/03 06:38:07;;;;;;;36.25;20.70;;;13.10;78.30;;;;;;5012474;28;20025;-78
2022/05/03 06:40:33;;;;;;;42.33;22.42;;;13.20;76.70;;;;;;5012165;28;20567;-78
2022/05/03 06:42:58;;;;;;;39.20;21.67;;;13.20;74.20;;;;;;4996004;28;20018;-79
2022/05/03 06:45:24;;;;;;;38.42;23.08;;;13.30;72.20;;;;;;4996153;28;20030;-75
2022/05/03 06:47:50;;;;;;;37.25;21.70;;;13.30;72.40;;;;;;4996000;28;20034;-78
2022/05/03 06:50:16;;;;;;;30.40;21.23;;;13.30;71.50;;;;;;4995932;28;20041;-77
2022/05/03 06:52:42;;;;;;;41.00;22.05;;;13.30;71.70;;;;;;5013587;28;20025;-78
2022/05/03 06:55:08;;;;;;;32.08;22.00;;;13.50;73.30;;;;;;5013444;28;20018;-79
2022/05/03 06:57:35;;;;;;;32.85;20.70;;;13.50;70.90;;;;;;4995953;28;20088;-79
2022/05/03 07:00:04;;;;;;;33.88;21.88;;;13.60;71.30;;;;;;4995783;28;20105;-78
2022/05/03 07:02:34;;;;;;;32.83;21.38;;;13.80;70.60;;;;;;4995650;28;20020;-78
2022/05/03 07:05:01;;;;;;;34.47;21.38;;;14.00;68.50;;;;;;4987390;28;20025;-78
2022/05/03 07:07:27;;;;;;;33.85;21.08;;;14.10;67.50;;;;;;4993599;28;20541;-80
2022/05/03 07:09:53;;;;;;;35.00;20.38;;;14.10;66.90;;;;;;4995166;28;20076;-78
2022/05/03 07:12:19;;;;;;;25.98;19.25;;;14.20;67.40;;;;;;5013450;28;20026;-79
2022/05/03 07:14:44;;;;;;;26.27;17.88;;;14.20;66.60;;;;;;5012109;28;20458;-78
2022/05/03 07:22:45;;;;;;;24.75;17.85;;;14.20;66.10;;;;;;5011992;28;20053;-78
2022/05/03 07:22:45;;;;;;;30.65;19.27;;;14.80;66.10;;;;;;5011072;28;20037;-78
2022/05/03 07:25:11;;;;;;;27.60;17.38;;;15.10;64.60;;;;;;5010927;28;20022;-78
2022/05/03 07:27:37;;;;;;;24.20;16.48;;;15.40;63.60;;;;;;4993355;28;20030;-79
2022/05/03 07:30:03;;;;;;;27.65;19.05;;;15.70;61.90;;;;;;5009569;28;20026;-78
2022/05/03 07:32:28;;;;;;;28.02;18.60;;;16.00;59.50;;;;;;5009620;28;20073;-79
2022/05/03 07:34:54;;;;;;;25.92;16.63;;;15.90;58.20;;;;;;5010939;28;20032;-79
2022/05/03 07:37:19;;;;;;;20.80;13.85;;;16.10;57.30;;;;;;4994908;28;20026;-79
2022/05/03 07:39:45;;;;;;;17.02;13.68;;;16.20;55.80;;;;;;5012918;28;20099;-79
2022/05/03 07:42:10;;;;;;;21.52;14.00;;;16.30;55.60;;;;;;5011781;28;20018;-80
2022/05/03 07:44:36;;;;;;;20.58;13.45;;;16.40;54.60;;;;;;5012861;28;20046;-79
2022/05/03 07:47:02;;;;;;;21.48;14.18;;;16.50;54.40;;;;;;4995185;28;20026;-80
2022/05/03 07:49:28;;;;;;;19.50;13.20;;;16.80;54.70;;;;;;5012781;28;20087;-80
2022/05/03 07:51:53;;;;;;;17.90;12.55;;;16.90;55.80;;;;;;5012755;28;20022;-79
2022/05/03 07:54:19;;;;;;;17.05;13.05;;;16.90;55.20;;;;;;4995158;28;20034;-80
2022/05/03 07:56:46;;;;;;;19.60;13.05;;;16.90;53.90;;;;;;5012716;28;20026;-80
2022/05/03 07:59:12;;;;;;;14.15;11.73;;;17.00;53.70;;;;;;5012615;28;20021;-80
2022/05/03 08:01:40;;;;;;;22.50;13.15;;;17.20;53.40;;;;;;5012580;28;20372;-80
2022/05/03 08:04:06;;;;;;;17.77;12.02;;;17.40;52.90;;;;;;4995049;28;20042;-80
2022/05/03 08:06:32;;;;;;;13.80;10.43;;;17.70;53.00;;;;;;5012529;28;20022;-80
2022/05/03 08:08:57;;;;;;;13.45;8.93;;;18.00;51.10;;;;;;5011115;28;20080;-80
2022/05/03 08:11:24;;;;;;;12.07;7.78;;;18.20;48.70;;;;;;5012611;28;20076;-81
2022/05/03 08:13:52;;;;;;;10.07;8.02;;;18.30;45.70;;;;;;5012597;28;20045;-80
2022/05/03 08:16:22;;;;;;;13.57;8.40;;;18.40;45.70;;;;;;4994790;28;20032;-81
2022/05/03 08:18:48;;;;;;;12.38;8.77;;;18.30;45.40;;;;;;4994877;28;20033;-81
2022/05/03 08:21:15;;;;;;;15.60;9.15;;;18.20;44.60;;;;;;4998294;28;20471;-80
2022/05/03 08:23:41;;;;;;;10.85;8.07;;;18.50;46.50;;;;;;5016088;28;20387;-81
2022/05/03 08:26:07;;;;;;;11.23;7.75;;;18.60;46.50;;;;;;4998611;28;20061;-81
2022/05/03 08:28:33;;;;;;;10.30;7.25;;;18.70;45.80;;;;;;5011920;28;20112;-81
2022/05/03 08:30:59;;;;;;;12.32;8.07;;;18.80;46.30;;;;;;5015116;28;20018;-81
2022/05/03 08:33:26;;;;;;;9.60;7.85;;;19.00;46.40;;;;;;5013921;28;20048;-80
2022/05/03 08:35:51;;;;;;;8.40;7.53;;;19.20;45.80;;;;;;5015026;28;20787;-80
2022/05/03 08:43:45;;;;;;;14.45;8.60;;;19.10;44.30;;;;;;4996767;28;20089;-80
2022/05/03 08:46:11;;;;;;;12.50;8.23;;;19.10;44.10;;;;;;4996267;28;20023;-80
2022/05/03 08:48:40;;;;;;;11.05;8.10;;;19.10;44.90;;;;;;5008362;28;20034;-81
2022/05/03 08:51:10;;;;;;;8.60;7.35;;;19.30;43.60;;;;;;4997685;28;20025;-80
2022/05/03 08:53:36;;;;;;;10.70;8.02;;;19.30;43.60;;;;;;5015604;28;20091;-81
2022/05/03 08:56:02;;;;;;;14.82;9.30;;;19.40;44.10;;;;;;4998344;28;20029;-80
2022/05/03 08:58:29;;;;;;;10.50;6.85;;;19.00;41.70;;;;;;5014400;28;20467;-80
2022/05/03 09:00:54;;;;;;;11.98;7.50;;;19.00;41.50;;;;;;5005491;28;20041;-80
2022/05/03 09:03:20;;;;;;;12.95;7.85;;;18.90;41.30;;;;;;4978729;28;20508;-81
2022/05/03 09:05:46;;;;;;;13.13;8.55;;;18.70;43.20;;;;;;4994776;28;20036;-81
2022/05/03 09:08:12;;;;;;;12.88;8.27;;;18.70;44.00;;;;;;4995243;28;20038;-81
2022/05/03 09:10:38;;;;;;;11.40;8.57;;;18.80;43.90;;;;;;4994262;28;20068;-82
2022/05/03 09:13:25;;;;;;;15.80;9.05;;;18.70;44.50;;;;;;4977677;28;20085;-82
2022/05/03 09:15:55;;;;;;;12.15;7.85;;;18.20;45.60;;;;;;4994876;28;20038;-82
2022/05/03 09:18:20;;;;;;;12.25;8.93;;;18.30;46.40;;;;;;4982739;28;20022;-82
2022/05/03 09:26:24;;;;;;;12.00;8.43;;;17.90;47.70;;;;;;5014801;28;20127;-82
2022/05/03 09:29:05;;;;;;;12.50;7.90;;;18.10;48.00;;;;;;5013869;28;20061;-81
2022/05/03 09:31:32;;;;;;;12.75;7.28;;;18.00;48.00;;;;;;4997912;28;20026;-81
2022/05/03 09:33:59;;;;;;;11.80;8.15;;;18.00;47.50;;;;;;5013679;28;20085;-81
2022/05/03 09:36:26;;;;;;;12.25;7.35;;;18.20;47.30;;;;;;4996881;28;20125;-82
2022/05/03 09:38:55;;;;;;;9.40;8.05;;;18.30;47.50;;;;;;5012620;28;20072;-82
2022/05/03 09:41:21;;;;;;;13.02;8.63;;;18.20;47.60;;;;;;5013861;28;20018;-82
2022/05/03 09:44:06;;;;;;;10.27;8.80;;;18.10;48.00;;;;;;5014076;28;20026;-83
2022/05/03 09:46:52;;;;;;;12.63;8.18;;;18.10;48.80;;;;;;5012054;28;20018;-82
2022/05/03 09:49:19;;;;;;;10.20;8.77;;;17.90;48.10;;;;;;5013593;28;20053;-82
2022/05/03 09:51:45;;;;;;;8.02;7.05;;;17.90;47.90;;;;;;5013631;28;20046;-82
2022/05/03 09:54:11;;;;;;;16.65;9.27;;;17.90;48.70;;;;;;4996176;28;20112;-82
2022/05/03 09:56:39;;;;;;;13.05;8.35;;;17.80;48.80;;;;;;5013763;28;20022;-82
2022/05/03 09:59:08;;;;;;;13.48;8.55;;;17.60;48.80;;;;;;4995968;28;20061;-83
2022/05/03 10:01:35;;;;;;;13.90;8.05;;;17.40;49.50;;;;;;5011774;28;20096;-82
2022/05/03 10:04:01;;;;;;;14.75;9.38;;;17.60;49.90;;;;;;4996206;28;20021;-81
2022/05/03 10:06:29;;;;;;;19.55;9.32;;;17.40;50.20;;;;;;4995809;28;20377;-81
2022/05/03 10:08:58;;;;;;;13.85;9.30;;;17.30;50.80;;;;;;5013588;28;20058;-82
2022/05/03 10:11:26;;;;;;;15.27;8.73;;;17.10;50.80;;;;;;4995600;28;20152;-79
2022/05/03 10:13:55;;;;;;;10.43;7.93;;;17.30;51.00;;;;;;4995822;28;20025;-80
2022/05/03 10:22:01;;;;;;;12.55;8.40;;;17.60;50.80;;;;;;4998465;28;20049;-81
2022/05/03 10:24:28;;;;;;;9.48;7.55;;;17.30;49.30;;;;;;5012170;28;20018;-82
2022/05/03 10:27:01;;;;;;;10.07;8.05;;;17.30;48.70;;;;;;5013107;28;20106;-82
2022/05/03 10:29:33;;;;;;;12.40;7.97;;;17.30;48.90;;;;;;5012147;28;20037;-82
2022/05/03 10:32:14;;;;;;;10.35;7.70;;;17.60;49.20;;;;;;4995230;28;20036;-82
2022/05/03 10:34:51;;;;;;;10.35;7.18;;;17.80;49.10;;;;;;4995222;28;20025;-83
2022/05/03 10:37:46;;;;;;;11.68;7.50;;;17.80;48.90;;;;;;4995713;28;20040;-82
2022/05/03 10:40:14;;;;;;;8.35;7.18;;;18.00;48.50;;;;;;5003968;28;20495;-81
2022/05/03 10:42:41;;;;;;;9.52;6.75;;;18.20;48.70;;;;;;4995218;28;20018;-81
2022/05/03 10:45:14;;;;;;;10.65;7.45;;;18.10;48.60;;;;;;5012861;28;20053;-82
2022/05/03 10:47:50;;;;;;;8.07;7.13;;;18.40;47.70;;;;;;5012065;28;20034;-82
2022/05/03 10:50:19;;;;;;;10.63;7.47;;;18.90;47.10;;;;;;4995233;28;20048;-83
2022/05/03 10:52:59;;;;;;;10.68;7.40;;;19.00;45.60;;;;;;4995023;28;20061;-83
2022/05/03 10:55:27;;;;;;;13.27;7.97;;;19.10;43.50;;;;;;4994946;28;20487;-83
2022/05/03 10:58:23;;;;;;;11.73;7.10;;;19.00;42.80;;;;;;5012756;28;20018;-83
2022/05/03 11:01:09;;;;;;;8.60;6.60;;;19.00;44.30;;;;;;4994083;28;20030;-83
2022/05/03 11:03:38;;;;;;;8.98;7.10;;;19.20;44.20;;;;;;5012683;28;20384;-83
2022/05/03 11:06:19;;;;;;;9.38;7.10;;;19.40;44.00;;;;;;5012647;28;20058;-84
2022/05/03 11:14:35;;;;;;;12.63;6.97;;;19.50;42.90;;;;;;5001399;28;20089;-85
2022/05/03 11:17:08;;;;;;;11.43;7.50;;;19.70;43.00;;;;;;4990539;28;20466;-84
2022/05/03 11:19:49;;;;;;;7.75;6.97;;;19.50;42.40;;;;;;5006777;28;20030;-83
2022/05/03 11:22:27;;;;;;;7.90;7.10;;;19.20;42.70;;;;;;4992755;28;20522;-77
2022/05/03 11:24:54;;;;;;;8.13;6.65;;;19.40;42.70;;;;;;5010401;28;20025;-79
2022/05/03 11:27:21;;;;;;;7.97;6.63;;;19.00;42.70;;;;;;5010398;28;20030;-81
2022/05/03 11:29:54;;;;;;;10.43;7.13;;;19.00;42.90;;;;;;5010494;28;20108;-82
2022/05/03 11:32:33;;;;;;;11.63;6.50;;;18.80;43.30;;;;;;5011553;28;20088;-77
2022/05/03 11:35:00;;;;;;;7.50;6.68;;;19.00;43.60;;;;;;4994736;28;20051;-77
2022/05/03 11:37:26;;;;;;;8.25;6.78;;;19.00;43.10;;;;;;5012165;28;20492;-78
2022/05/03 11:39:52;;;;;;;8.95;6.80;;;19.30;42.70;;;;;;5010885;28;20026;-77
2022/05/03 11:42:21;;;;;;;9.25;7.07;;;19.50;42.90;;;;;;5012113;28;20114;-78
2022/05/03 11:44:47;;;;;;;11.93;7.05;;;19.70;42.50;;;;;;5010716;28;20048;-76
2022/05/03 11:47:14;;;;;;;8.88;6.93;;;19.90;42.10;;;;;;5011720;28;20117;-78
2022/05/03 11:49:43;;;;;;;8.40;7.03;;;20.10;41.20;;;;;;5011684;28;20069;-77
2022/05/03 11:57:44;;;;;;;10.32;7.05;;;20.20;40.80;;;;;;5006865;28;20476;-76
2022/05/03 12:00:13;;;;;;;7.38;6.30;;;20.00;39.90;;;;;;4994844;28;20109;-77
2022/05/03 12:02:41;;;;;;;8.05;7.03;;;19.90;39.60;;;;;;4996150;28;20101;-78
2022/05/03 12:05:25;;;;;;;7.00;6.15;;;19.80;39.90;;;;;;4977230;28;20026;-80
2022/05/03 12:07:56;;;;;;;7.18;6.28;;;20.10;40.20;;;;;;4993754;28;20050;-80
2022/05/03 12:10:31;;;;;;;9.57;7.10;;;20.30;40.40;;;;;;4995652;28;20089;-79
2022/05/03 12:13:25;;;;;;;12.55;8.85;;;20.30;40.10;;;;;;4993774;28;20148;-83
2022/05/03 12:15:57;;;;;;;10.88;9.40;;;19.90;41.70;;;;;;5012042;28;20492;-79
2022/05/03 12:18:30;;;;;;;12.20;8.20;;;19.80;41.90;;;;;;5015575;28;20026;-79
2022/05/03 12:21:07;;;;;;;20.23;12.48;;;19.50;43.50;;;;;;5015195;28;20261;-79
2022/05/03 12:23:33;;;;;;;14.32;9.60;;;19.10;43.70;;;;;;5014495;28;20026;-84
2022/05/03 12:26:20;;;;;;;14.93;11.23;;;18.90;43.90;;;;;;4997647;28;20049;-84
2022/05/03 12:28:47;;;;;;;15.65;11.18;;;18.70;44.00;;;;;;5013647;28;20052;-83
2022/05/03 12:31:14;;;;;;;15.20;9.82;;;18.80;44.70;;;;;;5014575;28;20033;-86
2022/05/03 12:34:00;;;;;;;12.55;7.25;;;19.00;44.80;;;;;;4997833;28;20109;-83
2022/05/03 12:36:36;;;;;;;9.10;8.20;;;19.20;45.30;;;;;;5014943;28;20033;-85
2022/05/03 12:39:16;;;;;;;9.18;7.28;;;19.30;46.10;;;;;;5015252;28;20136;-85
2022/05/03 12:41:42;;;;;;;7.45;6.70;;;19.00;45.50;;;;;;5014895;28;20042;-82
2022/05/03 12:44:11;;;;;;;9.95;7.47;;;19.10;45.30;;;;;;4997992;28;20478;-84
2022/05/03 12:46:37;;;;;;;11.57;7.78;;;18.80;44.90;;;;;;4996624;28;20037;-82
2022/05/03 12:49:05;;;;;;;8.98;7.00;;;19.00;45.50;;;;;;5014877;28;20049;-82
2022/05/03 12:51:32;;;;;;;9.50;7.13;;;18.80;44.60;;;;;;4997330;28;20026;-83
2022/05/03 12:54:02;;;;;;;9.35;6.43;;;18.80;44.80;;;;;;5014652;28;20032;-86
2022/05/03 12:59:13;;;;;;;10.73;6.88;;;18.70;45.30;;;;;;5013928;28;20419;-88
2022/05/03 13:01:39;;;;;;;8.50;6.93;;;18.70;45.00;;;;;;5013432;28;20475;-87
2022/05/03 13:04:05;;;;;;;10.25;8.07;;;18.80;45.00;;;;;;5014609;28;20022;-87
2022/05/03 13:06:31;;;;;;;13.55;8.73;;;19.00;45.10;;;;;;5012233;28;20030;-88
2022/05/03 13:08:56;;;;;;;10.93;8.80;;;18.90;45.00;;;;;;5014472;28;20052;-81
2022/05/03 13:11:22;;;;;;;11.23;8.27;;;18.80;44.90;;;;;;5014682;28;20053;-81
2022/05/03 13:13:49;;;;;;;12.02;7.03;;;18.60;45.00;;;;;;5013311;28;20049;-77
2022/05/03 13:16:14;;;;;;;8.35;5.80;;;18.40;45.70;;;;;;5014260;28;20022;-80
2022/05/03 13:18:40;;;;;;;10.75;7.78;;;18.40;46.40;;;;;;5013258;28;20040;-81
2022/05/03 13:21:06;;;;;;;19.95;10.10;;;18.40;47.00;;;;;;4996679;28;20025;-90
2022/05/03 13:23:32;;;;;;;16.92;11.50;;;18.30;47.00;;;;;;5013521;28;20475;-84
2022/05/03 13:25:58;;;;;;;8.32;6.72;;;18.30;47.00;;;;;;5013775;28;20028;-83
2022/05/03 13:28:23;;;;;;;13.40;8.55;;;18.30;47.00;;;;;;5014111;28;20041;-79
2022/05/03 13:30:50;;;;;;;12.27;9.23;;;18.40;46.50;;;;;;5013941;28;20541;-79
2022/05/03 13:33:16;;;;;;;8.88;7.20;;;18.50;46.00;;;;;;5012416;28;20407;-90